Time;durP1;ratioP1;P1;durP2;ratioP2;P2;SDS_P1;SDS_P2;PMS_P1;PMS_P2;Temp;Humidity;BMP_temperature;BMP_pressure;BME280_temperature;BME280_humidity;BME280_pressure;Samples;Min_cycle;Max_cycle;Signal;HPM_P1;HPM_P2
2022/06/04 00:00:19;;;;;;;9.45;3.00;;;;;;;17.05;71.19;93075.09;2048459;70;20154;-71
2022/06/04 00:02:47;;;;;;;8.30;3.35;;;;;;;16.92;71.99;93068.88;2063587;69;20563;-72
2022/06/04 00:05:16;;;;;;;4.78;2.83;;;;;;;16.98;71.34;93066.28;2048471;70;20147;-72
2022/06/04 00:07:42;;;;;;;9.85;3.10;;;;;;;17.00;71.42;93059.97;2051510;70;20150;-71
2022/06/04 00:15:45;;;;;;;7.43;2.88;;;;;;;16.79;71.75;93063.31;2051935;70;20161;-72
2022/06/04 00:18:11;;;;;;;7.10;3.30;;;;;;;16.83;71.11;93061.38;2051851;70;20588;-72
2022/06/04 00:20:37;;;;;;;7.65;3.30;;;;;;;16.79;71.14;93064.03;2048049;70;20199;-71
2022/06/04 00:23:06;;;;;;;5.30;3.28;;;;;;;16.74;71.30;93070.94;2048517;70;20241;-72
2022/06/04 00:25:33;;;;;;;6.80;3.13;;;;;;;16.30;73.42;93081.00;2048365;70;20166;-72
2022/06/04 00:28:02;;;;;;;5.28;3.20;;;;;;;16.37;73.23;93072.13;2048333;70;20130;-71
2022/06/04 00:30:28;;;;;;;7.07;2.90;;;;;;;16.51;72.29;93074.88;2048338;70;20162;-71
2022/06/04 00:32:54;;;;;;;7.03;3.30;;;;;;;16.47;72.13;93060.47;2051944;70;20189;-71
2022/06/04 00:35:20;;;;;;;9.18;3.10;;;;;;;16.48;72.25;93059.09;2051949;70;20249;-71
2022/06/04 00:37:46;;;;;;;6.55;3.33;;;;;;;16.51;72.10;93069.19;2051951;70;20248;-72
2022/06/04 00:40:24;;;;;;;10.95;3.55;;;;;;;16.49;72.07;93064.16;2052013;70;20146;-72
2022/06/04 00:42:50;;;;;;;6.43;2.50;;;;;;;16.45;72.92;93068.91;2052018;70;20245;-72
2022/06/04 00:45:21;;;;;;;5.47;2.50;;;;;;;16.57;71.13;93074.41;2052043;70;20515;-72
2022/06/04 00:47:48;;;;;;;7.85;2.70;;;;;;;16.30;73.00;93073.19;2051747;70;20143;-71
2022/06/04 00:50:18;;;;;;;3.92;2.70;;;;;;;16.47;72.11;93074.69;2051767;70;20154;-72
2022/06/04 00:52:46;;;;;;;4.82;2.45;;;;;;;16.49;72.25;93072.69;2051514;70;20224;-72
2022/06/04 00:55:13;;;;;;;6.18;2.47;;;;;;;16.53;70.81;93070.00;2051619;70;20142;-72
2022/06/04 00:57:44;;;;;;;4.57;2.40;;;;;;;16.50;71.63;93070.56;2051586;70;20173;-71
2022/06/04 01:00:28;;;;;;;4.68;2.35;;;;;;;16.48;71.78;93065.50;2051848;70;20218;-71
2022/06/04 01:03:18;;;;;;;9.88;2.80;;;;;;;16.50;72.32;93076.25;2051809;70;20248;-72
2022/06/04 01:06:21;;;;;;;6.30;2.58;;;;;;;16.44;72.00;93068.16;2051879;70;20629;-73
2022/06/04 01:09:05;;;;;;;6.68;2.58;;;;;;;16.42;72.01;93068.09;2051928;70;20522;-73
2022/06/04 01:12:09;;;;;;;6.38;2.42;;;;;;;16.44;71.31;93078.78;2051730;70;20142;-73
2022/06/04 01:14:38;;;;;;;7.80;2.90;;;;;;;16.42;71.36;93078.72;2051871;70;20146;-72
2022/06/04 01:17:20;;;;;;;8.82;2.88;;;;;;;16.41;72.30;93078.00;2051876;70;20162;-73
2022/06/04 01:20:10;;;;;;;7.07;2.67;;;;;;;16.27;72.43;93080.19;2048264;70;20230;-73
2022/06/04 01:22:58;;;;;;;4.70;2.30;;;;;;;16.47;70.67;93075.41;2051873;70;20261;-72
2022/06/04 01:25:29;;;;;;;3.13;2.45;;;;;;;16.19;72.05;93076.97;2052018;70;20166;-72
2022/06/04 01:28:09;;;;;;;5.50;2.30;;;;;;;16.05;73.02;93074.19;2051803;69;20222;-72
2022/06/04 01:30:43;;;;;;;4.75;2.22;;;;;;;16.39;70.71;93082.84;2051824;70;20165;-73
2022/06/04 01:33:35;;;;;;;5.97;2.80;;;;;;;16.25;71.35;93080.81;2048322;70;20177;-72
2022/06/04 01:36:08;;;;;;;6.03;2.42;;;;;;;16.12;72.27;93090.13;2051443;70;20539;-73
2022/06/04 01:38:40;;;;;;;6.20;2.30;;;;;;;16.12;72.25;93078.78;2051958;70;20174;-72
2022/06/04 01:41:27;;;;;;;10.63;2.40;;;;;;;16.15;72.38;93077.50;2051966;70;20699;-72
2022/06/04 01:44:09;;;;;;;7.10;2.40;;;;;;;16.19;71.42;93079.81;2052059;70;20149;-73
2022/06/04 01:46:48;;;;;;;4.85;2.35;;;;;;;16.14;71.41;93083.84;2051797;70;20138;-72
2022/06/04 01:49:22;;;;;;;5.75;2.30;;;;;;;16.12;72.13;93083.72;2051719;70;20720;-73
2022/06/04 01:51:52;;;;;;;5.97;2.60;;;;;;;15.86;72.77;93077.56;2051912;70;20182;-72
2022/06/04 01:54:31;;;;;;;6.68;2.35;;;;;;;15.69;73.82;93073.94;2051769;70;20268;-73
2022/06/04 01:57:09;;;;;;;8.80;2.70;;;;;;;15.84;72.86;93091.66;2051832;70;20216;-72
2022/06/04 01:59:44;;;;;;;5.47;2.40;;;;;;;15.90;71.83;93086.28;2051637;70;20146;-72
2022/06/04 02:02:17;;;;;;;6.20;2.90;;;;;;;15.86;72.05;93081.13;2051610;70;20313;-72
2022/06/04 02:04:50;;;;;;;9.70;2.92;;;;;;;15.83;73.03;93079.56;2051665;70;20182;-72
2022/06/04 02:07:30;;;;;;;3.90;2.20;;;;;;;15.97;72.16;93073.81;2047600;70;20158;-72
2022/06/04 02:10:00;;;;;;;7.05;2.22;;;;;;;15.99;71.82;93066.13;2048082;70;20166;-72
2022/06/04 02:12:26;;;;;;;9.88;2.30;;;;;;;15.95;72.73;93073.75;2048206;70;20652;-72
2022/06/04 02:14:51;;;;;;;5.35;2.28;;;;;;;15.93;71.99;93065.09;2048237;70;20233;-72
2022/06/04 02:17:23;;;;;;;8.75;2.22;;;;;;;15.82;72.79;93058.22;2047971;70;20168;-73
2022/06/04 02:19:48;;;;;;;7.38;2.92;;;;;;;15.86;70.80;93052.03;2047584;70;20147;-72
2022/06/04 02:22:14;;;;;;;4.60;2.25;;;;;;;15.96;70.90;93058.16;2047089;70;20599;-72
2022/06/04 02:24:41;;;;;;;5.78;2.80;;;;;;;15.93;70.92;93048.81;2047994;70;20170;-73
2022/06/04 02:27:09;;;;;;;6.30;2.40;;;;;;;15.95;71.37;93048.19;2048057;70;20177;-72
2022/06/04 02:29:36;;;;;;;9.30;2.72;;;;;;;15.99;70.30;93057.63;2047810;70;20234;-73
2022/06/04 02:32:11;;;;;;;7.20;2.60;;;;;;;15.91;71.75;93060.06;2048110;70;20669;-73
2022/06/04 02:34:57;;;;;;;6.80;2.28;;;;;;;15.90;72.35;93072.09;2048145;70;20139;-73
2022/06/04 02:37:32;;;;;;;4.35;2.20;;;;;;;15.55;73.72;93067.56;2048157;70;20167;-73
2022/06/04 02:40:09;;;;;;;5.88;2.47;;;;;;;15.65;72.71;93067.34;2048620;70;20194;-71
2022/06/04 02:43:00;;;;;;;7.80;2.30;;;;;;;15.68;72.78;93061.13;2047903;70;20249;-71
2022/06/04 02:46:03;;;;;;;6.13;2.33;;;;;;;15.71;72.59;93061.94;2048524;70;20141;-71
2022/06/04 02:48:38;;;;;;;7.13;2.60;;;;;;;15.66;72.65;93063.13;2046648;70;20162;-72
2022/06/04 02:51:12;;;;;;;5.35;2.60;;;;;;;15.73;72.60;93065.63;2048677;70;20820;-71
2022/06/04 02:53:39;;;;;;;4.80;2.33;;;;;;;15.06;75.33;93068.00;2048718;70;20649;-72
2022/06/04 02:56:13;;;;;;;9.25;2.40;;;;;;;15.38;73.70;93063.19;2048539;70;20685;-71
2022/06/04 02:58:42;;;;;;;4.28;2.50;;;;;;;15.48;72.98;93062.94;2048507;70;20143;-73
2022/06/04 03:01:11;;;;;;;7.55;2.80;;;;;;;15.46;72.23;93057.94;2045151;70;20168;-71
2022/06/04 03:03:38;;;;;;;7.85;2.72;;;;;;;15.57;71.03;93066.91;2045090;70;20224;-72
2022/06/04 03:06:07;;;;;;;6.82;2.35;;;;;;;15.50;72.00;93068.75;2046068;70;20157;-72
2022/06/04 03:08:35;;;;;;;8.82;2.80;;;;;;;15.52;71.44;93058.22;2051908;70;20150;-72
2022/06/04 03:11:01;;;;;;;8.35;2.80;;;;;;;15.52;71.24;93061.03;2052106;70;20237;-72
2022/06/04 03:13:27;;;;;;;4.55;2.60;;;;;;;15.41;72.49;93052.69;2052071;70;20149;-73
2022/06/04 03:15:53;;;;;;;5.03;2.53;;;;;;;15.22;74.09;93051.06;2052146;70;20595;-72
2022/06/04 03:18:19;;;;;;;6.32;2.97;;;;;;;14.82;74.86;93046.94;2052037;70;20162;-72
2022/06/04 03:20:45;;;;;;;7.03;3.30;;;;;;;14.96;74.61;93054.06;2052365;70;20143;-72
2022/06/04 03:23:10;;;;;;;6.63;3.40;;;;;;;15.16;73.12;93053.59;2048987;69;20522;-72
2022/06/04 03:25:38;;;;;;;8.88;2.80;;;;;;;15.27;72.17;93060.50;2052258;70;20142;-72
2022/06/04 03:28:06;;;;;;;7.45;2.70;;;;;;;15.27;71.90;93060.50;2052324;70;20231;-73
2022/06/04 03:30:31;;;;;;;12.05;2.80;;;;;;;15.23;71.54;93066.72;2052215;70;20161;-72
2022/06/04 03:32:57;;;;;;;5.15;2.28;;;;;;;15.34;70.79;93065.84;2052351;70;20134;-72
2022/06/04 03:35:23;;;;;;;8.95;3.22;;;;;;;15.21;72.67;93073.03;2052169;70;20233;-72
2022/06/04 03:37:53;;;;;;;5.15;3.10;;;;;;;15.19;72.72;93066.50;2052211;70;20138;-72
2022/06/04 03:40:19;;;;;;;10.05;3.13;;;;;;;15.17;72.29;93075.66;2052278;70;20247;-73
2022/06/04 03:42:45;;;;;;;7.20;2.88;;;;;;;15.31;70.52;93069.97;2052209;70;20239;-72
2022/06/04 03:45:12;;;;;;;4.97;2.95;;;;;;;15.21;71.93;93081.53;2052236;70;20146;-72
2022/06/04 03:47:38;;;;;;;8.00;2.85;;;;;;;15.02;72.86;93089.75;2052036;70;20138;-73
2022/06/04 03:50:10;;;;;;;6.65;2.85;;;;;;;15.02;73.16;93078.41;2052375;70;20166;-72
2022/06/04 03:52:36;;;;;;;4.63;2.67;;;;;;;15.11;72.49;93083.84;2052218;70;20271;-73
2022/06/04 03:55:02;;;;;;;6.65;2.83;;;;;;;15.17;72.73;93083.44;2065244;69;20595;-73
2022/06/04 03:57:42;;;;;;;9.88;2.80;;;;;;;15.23;71.23;93087.31;2052313;70;20608;-72
2022/06/04 04:00:29;;;;;;;8.13;2.60;;;;;;;15.21;71.69;93084.38;2052262;70;20146;-72
2022/06/04 04:03:01;;;;;;;6.03;2.33;;;;;;;15.15;72.43;93084.06;2052060;70;20157;-72
2022/06/04 04:05:31;;;;;;;8.43;2.70;;;;;;;15.16;72.43;93091.19;2052203;70;20181;-72
2022/06/04 04:07:59;;;;;;;6.93;2.70;;;;;;;15.17;71.88;93080.59;2052169;70;20204;-72
2022/06/04 04:10:27;;;;;;;6.10;2.28;;;;;;;15.13;71.75;93074.72;2048822;70;20588;-73
2022/06/04 04:12:53;;;;;;;7.15;2.35;;;;;;;15.15;72.98;93063.47;2052161;70;20130;-73
2022/06/04 04:15:20;;;;;;;6.13;2.65;;;;;;;15.17;72.81;93063.59;2052082;70;20151;-73
2022/06/04 04:17:47;;;;;;;5.10;2.35;;;;;;;15.29;71.59;93066.28;2052020;70;20142;-73
2022/06/04 04:20:17;;;;;;;9.55;2.33;;;;;;;15.19;71.76;93072.91;2052180;70;20150;-73
2022/06/04 04:22:43;;;;;;;6.13;2.28;;;;;;;15.34;71.13;93076.44;2052381;70;20147;-74
2022/06/04 04:25:10;;;;;;;4.75;2.47;;;;;;;15.28;71.24;93076.16;2052095;70;20151;-74
2022/06/04 04:27:37;;;;;;;8.77;2.35;;;;;;;15.24;72.03;93076.69;2052049;70;20219;-72
2022/06/04 04:30:06;;;;;;;3.63;2.28;;;;;;;15.31;71.07;93078.47;2051834;70;20153;-73
2022/06/04 04:32:32;;;;;;;8.48;2.30;;;;;;;15.38;70.96;93077.38;2045535;70;20512;-73
2022/06/04 04:34:59;;;;;;;8.45;2.22;;;;;;;15.29;72.00;93074.78;2052038;70;20157;-73
2022/06/04 04:37:28;;;;;;;5.35;2.20;;;;;;;15.27;73.42;93074.69;2048858;70;20156;-72
2022/06/04 04:39:54;;;;;;;7.57;2.80;;;;;;;14.87;74.44;93079.78;2052072;70;20169;-72
2022/06/04 04:42:20;;;;;;;3.78;2.35;;;;;;;15.06;73.70;93087.13;2052066;70;20560;-72
2022/06/04 04:44:46;;;;;;;5.18;2.22;;;;;;;15.29;70.30;93077.63;2051888;70;20177;-74
2022/06/04 04:47:13;;;;;;;6.18;2.20;;;;;;;15.28;71.30;93087.50;2051772;70;20143;-73
2022/06/04 04:49:38;;;;;;;6.75;3.13;;;;;;;15.29;71.67;93094.63;2051830;70;20139;-73
2022/06/04 04:52:05;;;;;;;4.43;2.33;;;;;;;15.30;71.79;93090.44;2051904;70;20212;-71
2022/06/04 04:54:31;;;;;;;3.45;2.50;;;;;;;15.41;70.85;93083.91;2051938;70;20142;-73
2022/06/04 04:56:56;;;;;;;4.22;2.33;;;;;;;15.36;71.73;93087.91;2045828;70;20154;-73
2022/06/04 04:59:22;;;;;;;5.82;2.22;;;;;;;15.46;71.38;93083.47;2051936;70;20600;-73
2022/06/04 05:01:48;;;;;;;4.97;2.22;;;;;;;15.39;71.61;93081.69;2051771;70;20569;-73
2022/06/04 05:04:13;;;;;;;6.13;2.58;;;;;;;15.34;71.25;93080.00;2048603;70;20192;-72
2022/06/04 05:06:39;;;;;;;6.63;2.22;;;;;;;15.35;71.12;93083.59;2051920;70;20186;-72
2022/06/04 05:09:05;;;;;;;7.68;2.40;;;;;;;15.41;70.55;93083.91;2052010;70;20147;-72
2022/06/04 05:11:33;;;;;;;7.05;2.30;;;;;;;15.55;70.44;93081.75;2048899;70;20532;-72
2022/06/04 05:14:00;;;;;;;7.93;2.30;;;;;;;15.48;70.71;93083.53;2048553;70;20536;-73
2022/06/04 05:16:29;;;;;;;8.32;2.60;;;;;;;15.47;71.58;93075.69;2048515;70;20216;-72
2022/06/04 05:18:55;;;;;;;6.55;2.42;;;;;;;15.50;70.62;93072.31;2048083;70;20146;-72
2022/06/04 05:21:23;;;;;;;6.90;2.45;;;;;;;15.39;71.47;93064.66;2051810;70;20154;-72
2022/06/04 05:23:50;;;;;;;7.13;2.30;;;;;;;15.44;70.52;93063.50;2051976;70;20153;-72
2022/06/04 05:26:17;;;;;;;6.40;2.60;;;;;;;15.51;70.43;93081.56;2052036;70;20130;-73
2022/06/04 05:28:43;;;;;;;6.95;2.40;;;;;;;15.53;70.20;93075.97;2052162;70;20216;-73
2022/06/04 05:31:10;;;;;;;6.13;2.22;;;;;;;15.49;71.59;93078.63;2052130;70;20150;-73
2022/06/04 05:33:36;;;;;;;5.00;2.30;;;;;;;15.56;71.52;93068.28;2052149;70;20622;-73
2022/06/04 05:36:03;;;;;;;9.52;2.55;;;;;;;15.61;70.16;93064.28;2052242;70;20146;-73
2022/06/04 05:38:34;;;;;;;9.65;2.60;;;;;;;15.63;71.32;93064.38;2052163;70;20158;-72
2022/06/04 05:41:02;;;;;;;6.80;2.58;;;;;;;15.65;70.00;93058.81;2052154;70;20219;-73
2022/06/04 05:43:29;;;;;;;6.05;2.10;;;;;;;15.54;70.45;93048.34;2052110;70;20138;-72
2022/06/04 05:46:07;;;;;;;9.18;2.60;;;;;;;15.39;70.37;93056.16;2048863;70;20170;-73
2022/06/04 05:48:35;;;;;;;7.00;2.60;;;;;;;15.46;71.47;93057.94;2051980;70;20140;-73
2022/06/04 05:51:01;;;;;;;8.65;2.90;;;;;;;15.58;68.96;93057.03;2051579;70;20130;-74
2022/06/04 05:53:27;;;;;;;5.15;2.28;;;;;;;15.48;69.93;93060.13;2052193;70;20130;-74
2022/06/04 05:55:53;;;;;;;6.95;2.30;;;;;;;15.55;71.38;93064.72;2052064;70;20513;-73
2022/06/04 05:58:19;;;;;;;8.30;2.70;;;;;;;15.63;70.68;93072.91;2052050;70;20154;-72
2022/06/04 06:00:45;;;;;;;10.05;2.25;;;;;;;15.73;67.94;93082.66;2052105;70;20220;-73
2022/06/04 06:03:11;;;;;;;8.00;2.25;;;;;;;15.70;69.83;93083.91;2051914;70;20520;-73
2022/06/04 06:05:44;;;;;;;8.20;3.03;;;;;;;15.64;70.60;93091.41;2051992;70;20328;-74
2022/06/04 06:08:11;;;;;;;9.70;2.63;;;;;;;15.74;70.81;93097.59;2052101;70;20166;-73
2022/06/04 06:10:39;;;;;;;8.80;4.28;;;;;;;15.73;69.47;93087.59;2051987;70;20134;-73
2022/06/04 06:13:05;;;;;;;7.55;3.47;;;;;;;15.87;69.84;93098.91;2051687;70;20574;-71
2022/06/04 06:15:31;;;;;;;6.97;2.53;;;;;;;15.87;70.80;93091.13;2051901;70;20154;-72
2022/06/04 06:17:57;;;;;;;5.80;2.15;;;;;;;15.91;70.09;93088.47;2051977;70;20556;-73
2022/06/04 06:20:22;;;;;;;7.15;2.90;;;;;;;15.92;71.63;93092.03;2051965;70;20190;-73
2022/06/04 06:22:48;;;;;;;6.68;2.95;;;;;;;16.01;69.91;93091.78;2051896;70;20618;-72
2022/06/04 06:25:16;;;;;;;9.27;3.78;;;;;;;16.04;70.24;93092.63;2051904;70;20164;-73
2022/06/04 06:27:45;;;;;;;9.82;3.28;;;;;;;16.04;71.28;93097.56;2051473;70;20524;-73
2022/06/04 06:30:13;;;;;;;10.45;2.80;;;;;;;16.18;68.87;93073.41;2051961;70;20150;-73
2022/06/04 06:32:40;;;;;;;12.27;2.67;;;;;;;16.31;68.08;93071.09;2051348;70;20149;-73
2022/06/04 06:35:06;;;;;;;6.55;2.80;;;;;;;16.39;70.13;93072.19;2052008;70;20138;-73
2022/06/04 06:37:32;;;;;;;10.43;2.72;;;;;;;16.34;70.05;93069.81;2052042;70;20154;-73
2022/06/04 06:39:58;;;;;;;8.13;2.38;;;;;;;16.50;67.96;93062.03;2051936;70;20146;-74
2022/06/04 06:42:23;;;;;;;8.10;2.22;;;;;;;16.62;68.38;93061.81;2051960;70;20547;-74
2022/06/04 06:44:57;;;;;;;6.47;2.55;;;;;;;16.63;72.17;93068.97;2052082;70;20237;-74
2022/06/04 06:47:22;;;;;;;5.10;2.22;;;;;;;16.69;70.08;93081.34;2051956;70;20156;-74
2022/06/04 06:49:49;;;;;;;6.70;2.17;;;;;;;16.81;69.86;93091.81;2051909;70;20235;-74
2022/06/04 06:52:16;;;;;;;5.55;2.55;;;;;;;16.86;71.33;93099.16;2051960;70;20166;-74
2022/06/04 06:54:43;;;;;;;8.15;2.40;;;;;;;16.90;72.46;93087.94;2051962;70;20141;-74
2022/06/04 06:57:10;;;;;;;6.72;2.42;;;;;;;16.96;71.08;93088.22;2048779;70;20203;-74
2022/06/04 06:59:37;;;;;;;9.13;2.67;;;;;;;16.89;72.48;93084.38;2051852;70;20519;-74
2022/06/04 07:02:04;;;;;;;5.63;2.70;;;;;;;17.07;71.93;93069.50;2051952;70;20154;-73
2022/06/04 07:04:30;;;;;;;8.18;2.22;;;;;;;17.13;69.60;93070.47;2051824;70;20146;-75
2022/06/04 07:06:59;;;;;;;6.80;2.60;;;;;;;17.27;72.54;93067.47;2051798;70;20157;-74
2022/06/04 07:09:27;;;;;;;11.07;3.00;;;;;;;17.28;70.83;93061.16;2051813;70;20194;-74
2022/06/04 07:11:53;;;;;;;8.52;2.40;;;;;;;17.39;71.36;93067.28;2051906;70;20158;-73
2022/06/04 07:14:20;;;;;;;8.52;2.60;;;;;;;17.38;70.34;93058.00;2051926;70;20142;-73
2022/06/04 07:16:47;;;;;;;9.73;2.70;;;;;;;17.48;70.36;93064.09;2051859;70;20196;-72
2022/06/04 07:19:14;;;;;;;6.20;2.85;;;;;;;17.63;70.64;93050.44;2051643;70;20208;-74
2022/06/04 07:21:40;;;;;;;6.03;2.63;;;;;;;17.72;71.45;93050.13;2051707;70;20143;-74
2022/06/04 07:24:07;;;;;;;5.00;2.58;;;;;;;17.74;70.99;93055.94;2051712;70;20203;-74
2022/06/04 07:26:32;;;;;;;5.72;2.78;;;;;;;17.86;70.92;93055.66;2052195;70;20142;-74
2022/06/04 07:28:59;;;;;;;8.57;2.67;;;;;;;17.91;70.95;93048.75;2052074;70;20165;-74
2022/06/04 07:31:25;;;;;;;8.77;2.50;;;;;;;17.98;70.46;93050.47;2049121;70;20605;-74
2022/06/04 07:33:55;;;;;;;3.88;2.13;;;;;;;18.11;70.68;93042.41;2052130;70;20543;-73
2022/06/04 07:36:26;;;;;;;5.20;2.50;;;;;;;18.22;71.52;93047.81;2049097;70;20150;-74
2022/06/04 07:38:53;;;;;;;8.23;2.90;;;;;;;18.26;70.59;93042.28;2052272;70;20161;-74
2022/06/04 07:41:24;;;;;;;6.18;2.58;;;;;;;18.40;70.98;93042.06;2052322;70;20150;-74
2022/06/04 07:43:50;;;;;;;7.28;2.95;;;;;;;18.55;70.32;93034.75;2052375;70;20607;-74
2022/06/04 07:46:17;;;;;;;5.60;2.50;;;;;;;18.72;68.63;93022.59;2052472;70;20145;-74
2022/06/04 07:48:44;;;;;;;8.10;2.30;;;;;;;18.84;65.92;93028.00;2052216;70;20523;-74
2022/06/04 07:51:10;;;;;;;5.38;2.30;;;;;;;19.05;65.10;93024.44;2052366;70;20147;-73
2022/06/04 07:53:36;;;;;;;7.60;2.30;;;;;;;19.62;60.66;93016.38;2052334;69;20214;-73
2022/06/04 07:56:08;;;;;;;9.82;2.47;;;;;;;19.66;61.61;93008.66;2052367;69;20142;-74
2022/06/04 07:58:35;;;;;;;4.03;2.30;;;;;;;19.85;59.10;93006.38;2052381;70;20572;-74
2022/06/04 08:01:03;;;;;;;7.20;2.50;;;;;;;19.75;60.11;93003.94;2052207;70;20267;-74
2022/06/04 08:03:31;;;;;;;10.75;2.40;;;;;;;19.74;59.70;92999.59;2052047;70;20154;-75
2022/06/04 08:05:57;;;;;;;8.13;2.50;;;;;;;19.71;59.01;92990.25;2052186;70;20251;-75
2022/06/04 08:08:22;;;;;;;5.07;2.33;;;;;;;19.90;58.93;93000.13;2052336;70;20196;-74
2022/06/04 08:10:49;;;;;;;5.25;2.40;;;;;;;20.00;61.70;92991.84;2052221;70;20239;-74
2022/06/04 08:13:23;;;;;;;5.75;2.55;;;;;;;20.55;59.59;92989.91;2052244;70;20139;-75
2022/06/04 08:15:49;;;;;;;8.32;2.28;;;;;;;21.10;58.04;92990.69;2052298;70;20237;-75
2022/06/04 08:18:16;;;;;;;5.32;2.15;;;;;;;21.08;57.85;92985.63;2052208;70;20257;-75
2022/06/04 08:20:43;;;;;;;6.45;2.22;;;;;;;21.76;57.73;92980.22;2052270;70;20146;-73
2022/06/04 08:23:10;;;;;;;6.65;2.38;;;;;;;21.69;56.55;92980.72;2052283;70;20151;-75
2022/06/04 08:25:44;;;;;;;5.65;2.22;;;;;;;22.45;55.84;92980.28;2052277;70;20136;-75
2022/06/04 08:28:10;;;;;;;6.53;2.83;;;;;;;22.61;55.97;92977.78;2052235;70;20523;-74
2022/06/04 08:30:36;;;;;;;7.47;2.10;;;;;;;22.95;56.38;92971.28;2052200;70;20166;-73
2022/06/04 08:33:02;;;;;;;6.95;2.47;;;;;;;23.34;55.41;92967.69;2052122;70;20539;-73
2022/06/04 08:35:29;;;;;;;5.13;2.00;;;;;;;23.40;49.43;92969.22;2052248;70;20245;-73
2022/06/04 08:37:54;;;;;;;6.32;2.03;;;;;;;23.55;47.69;92974.53;2052210;70;20550;-76
2022/06/04 08:40:45;;;;;;;6.38;2.33;;;;;;;23.81;47.81;92968.50;2052268;70;20527;-76
2022/06/04 08:43:46;;;;;;;6.65;1.88;;;;;;;24.06;48.26;92955.22;2052273;70;20146;-75
2022/06/04 08:46:38;;;;;;;5.43;2.20;;;;;;;24.50;45.00;92965.91;2049284;70;20150;-73
2022/06/04 08:49:12;;;;;;;4.22;1.90;;;;;;;24.72;47.69;92956.81;2052161;70;20237;-73
2022/06/04 08:51:38;;;;;;;4.28;2.10;;;;;;;25.07;48.32;92955.09;2052370;70;20138;-73
2022/06/04 08:57:32;;;;;;;8.57;2.20;;;;;;;25.28;48.02;92958.19;2052223;70;20186;-73
2022/06/04 08:59:50;;;;;;;4.65;1.75;;;;;;;25.90;43.70;92956.59;2052338;70;20640;-74
2022/06/04 09:02:25;;;;;;;4.82;2.10;;;;;;;25.67;45.04;92956.38;2052367;70;20169;-76
2022/06/04 09:05:18;;;;;;;10.15;1.90;;;;;;;26.20;45.54;92959.69;2052192;70;20142;-76
2022/06/04 09:07:49;;;;;;;5.78;2.03;;;;;;;26.34;43.63;92961.94;2041636;70;20169;-76
2022/06/04 09:10:23;;;;;;;5.68;2.55;;;;;;;26.28;43.57;92959.72;2048904;70;20195;-75
2022/06/04 09:13:09;;;;;;;5.38;2.22;;;;;;;26.17;44.77;92955.34;2048930;70;20139;-76
2022/06/04 09:15:43;;;;;;;4.50;1.95;;;;;;;26.33;44.30;92951.81;2048907;70;20602;-76
2022/06/04 09:18:24;;;;;;;4.05;1.65;;;;;;;26.64;41.45;92960.69;2048847;70;20182;-75
2022/06/04 09:20:55;;;;;;;2.90;1.73;;;;;;;26.80;42.34;92952.06;2049003;70;20616;-75
2022/06/04 09:23:31;;;;;;;5.72;2.00;;;;;;;26.92;40.72;92951.41;2048852;70;20240;-77
2022/06/04 09:26:26;;;;;;;4.03;1.55;;;;;;;26.88;42.39;92946.34;2048861;70;20198;-75
2022/06/04 09:29:14;;;;;;;5.32;1.73;;;;;;;27.21;39.96;92947.19;2048149;70;20177;-76
2022/06/04 09:31:52;;;;;;;5.32;2.10;;;;;;;27.34;40.69;92942.16;2048302;70;20169;-76
2022/06/04 09:34:19;;;;;;;2.42;1.40;;;;;;;26.95;40.85;92939.16;2048657;70;20229;-75
2022/06/04 09:36:46;;;;;;;3.72;1.63;;;;;;;27.54;40.63;92932.81;2045544;70;20185;-74
2022/06/04 09:39:19;;;;;;;4.53;1.80;;;;;;;27.86;40.79;92935.00;2048819;70;20158;-76
2022/06/04 09:41:51;;;;;;;2.95;1.70;;;;;;;28.38;40.57;92929.91;2048951;70;20173;-76
2022/06/04 09:44:17;;;;;;;2.95;1.63;;;;;;;28.29;38.66;92918.31;2048903;70;20143;-74
2022/06/04 09:46:45;;;;;;;5.53;1.70;;;;;;;28.62;39.56;92918.22;2048742;70;20228;-74
2022/06/04 09:49:40;;;;;;;4.32;1.83;;;;;;;28.76;38.21;92915.28;2048668;70;20234;-74
2022/06/04 09:52:33;;;;;;;4.10;1.58;;;;;;;28.66;37.95;92917.50;2048798;70;20139;-75
2022/06/04 09:55:07;;;;;;;5.20;1.60;;;;;;;29.30;37.12;92919.38;2048958;70;20143;-74
2022/06/04 09:57:35;;;;;;;5.70;1.80;;;;;;;29.34;36.59;92909.94;2048892;70;20146;-74
2022/06/04 10:00:26;;;;;;;4.93;1.80;;;;;;;29.37;37.36;92914.28;2048720;70;20159;-74
2022/06/04 10:02:58;;;;;;;5.43;1.65;;;;;;;29.63;37.29;92908.31;2047957;70;20150;-75
2022/06/04 10:05:27;;;;;;;4.38;1.67;;;;;;;29.04;37.01;92897.06;2048766;70;20235;-73
2022/06/04 10:07:53;;;;;;;5.57;1.50;;;;;;;29.90;36.24;92899.41;2048167;70;20148;-73
2022/06/04 10:10:31;;;;;;;4.32;1.73;;;;;;;31.12;35.00;92906.13;2048727;70;20162;-74
2022/06/04 10:15:46;;;;;;;3.83;1.20;;;;;;;31.54;33.17;92890.25;2045848;70;20146;-76
2022/06/04 10:18:29;;;;;;;3.20;1.40;;;;;;;31.95;32.81;92877.28;2048672;70;20130;-75
2022/06/04 10:20:56;;;;;;;;;;;;;;;32.33;31.81;92878.78;2048843;70;20217;-76
2022/06/04 10:23:22;;;;;;;4.05;1.48;;;;;;;32.88;30.71;92871.91;2048818;70;20255;-77
2022/06/04 10:26:16;;;;;;;3.25;1.25;;;;;;;31.92;29.99;92867.84;2048628;70;20146;-72
2022/06/04 10:29:05;;;;;;;5.07;1.40;;;;;;;32.06;29.05;92875.63;2048780;70;20233;-73
2022/06/04 10:32:05;;;;;;;6.65;1.70;;;;;;;32.84;29.58;92863.97;2048812;70;20551;-74
2022/06/04 10:35:06;;;;;;;4.90;1.23;;;;;;;34.10;28.63;92856.78;2048593;70;20162;-76
2022/06/04 10:37:49;;;;;;;7.07;1.40;;;;;;;34.70;27.97;92850.09;2045371;70;20592;-74
2022/06/04 10:40:37;;;;;;;3.20;1.27;;;;;;;35.11;28.26;92849.66;2048709;70;20157;-75
2022/06/04 10:43:27;;;;;;;3.35;1.23;;;;;;;35.19;29.21;92845.75;2048654;70;20293;-76
2022/06/04 10:46:31;;;;;;;6.22;1.20;;;;;;;36.18;26.86;92844.13;2048594;70;20239;-76
2022/06/04 10:49:12;;;;;;;7.22;1.60;;;;;;;35.46;27.34;92842.75;2048501;70;20157;-78
2022/06/04 10:52:07;;;;;;;6.25;1.42;;;;;;;36.66;26.00;92838.81;2048686;70;20158;-75
2022/06/04 10:54:48;;;;;;;4.28;1.50;;;;;;;36.89;25.20;92844.59;2048692;70;20147;-73
2022/06/04 10:57:29;;;;;;;3.67;1.25;;;;;;;38.26;23.39;92833.38;2048669;70;20222;-72
2022/06/04 11:00:04;;;;;;;3.08;1.23;;;;;;;39.50;22.14;92830.16;2048986;70;20235;-73
2022/06/04 11:02:56;;;;;;;3.72;1.35;;;;;;;40.85;20.85;92833.06;2048952;70;20183;-72
2022/06/04 11:05:31;;;;;;;4.05;1.10;;;;;;;40.45;20.84;92833.63;2049241;70;20687;-74
2022/06/04 11:08:10;;;;;;;2.80;1.13;;;;;;;42.61;17.76;92833.66;2052328;70;20526;-76
2022/06/04 11:10:40;;;;;;;4.55;1.20;;;;;;;44.87;17.25;92838.66;2052369;70;20611;-75
2022/06/04 11:13:12;;;;;;;4.28;1.20;;;;;;;46.16;17.14;92830.31;2052399;70;20543;-74
2022/06/04 11:15:46;;;;;;;3.08;1.00;;;;;;;47.64;15.43;92838.41;2052401;70;20157;-73
2022/06/04 11:18:17;;;;;;;5.05;1.20;;;;;;;48.70;14.88;92829.78;2052369;70;20229;-73
2022/06/04 11:20:51;;;;;;;3.10;1.20;;;;;;;47.49;15.12;92832.16;2052369;70;20146;-78
2022/06/04 11:23:43;;;;;;;4.72;1.20;;;;;;;49.28;15.46;92819.72;2049297;70;20146;-78
2022/06/04 11:26:21;;;;;;;3.13;1.00;;;;;;;49.31;14.01;92820.94;2052376;70;20146;-74
2022/06/04 11:28:47;;;;;;;6.43;1.20;;;;;;;51.27;13.07;92803.28;2052336;70;20135;-74
2022/06/04 11:31:35;;;;;;;5.20;1.10;;;;;;;50.20;13.38;92808.66;2049172;70;20242;-78
2022/06/04 11:34:38;;;;;;;2.72;1.05;;;;;;;51.55;12.74;92803.63;2052299;70;20146;-74
2022/06/04 11:37:30;;;;;;;3.80;1.05;;;;;;;52.49;12.14;92806.47;2048989;70;20150;-74
2022/06/04 11:40:08;;;;;;;3.50;1.13;;;;;;;52.74;12.23;92795.72;2052321;70;20158;-77
2022/06/04 11:42:33;;;;;;;1.65;0.88;;;;;;;53.15;12.23;92794.56;2052381;70;20153;-78
2022/06/04 11:45:17;;;;;;;6.43;0.95;;;;;;;53.40;12.00;92792.78;2052407;70;20591;-74
2022/06/04 11:48:05;;;;;;;4.85;0.90;;;;;;;53.45;11.62;92787.75;2052266;70;20142;-78
2022/06/04 11:50:57;;;;;;;7.03;1.20;;;;;;;52.65;12.63;92782.41;2052244;70;20596;-78
2022/06/04 11:53:56;;;;;;;4.32;1.10;;;;;;;52.49;10.91;92778.72;2052386;70;20146;-77
2022/06/04 11:56:21;;;;;;;3.47;1.10;;;;;;;53.46;10.82;92771.09;2052440;70;20142;-76
2022/06/04 11:59:11;;;;;;;5.55;1.13;;;;;;;53.50;11.61;92772.97;2052235;70;20526;-74
2022/06/04 12:01:46;;;;;;;2.83;1.10;;;;;;;53.71;10.49;92765.53;2052286;70;20149;-75
2022/06/04 12:04:18;;;;;;;4.82;1.08;;;;;;;52.71;11.43;92760.78;2052131;70;20130;-76
2022/06/04 12:06:52;;;;;;;2.50;1.10;;;;;;;54.10;10.29;92756.09;2052175;70;20245;-76
2022/06/04 12:09:34;;;;;;;3.88;1.02;;;;;;;51.76;10.23;92736.31;2052366;70;20500;-73